Time;durP1;ratioP1;P1;durP2;ratioP2;P2;SDS_P1;SDS_P2;PMS_P1;PMS_P2;Temp;Humidity;BMP_temperature;BMP_pressure;BME280_temperature;BME280_humidity;BME280_pressure;Samples;Min_cycle;Max_cycle;Signal;HPM_P1;HPM_P2
2021/05/09 00:00:00;;;;;;;8.00;6.45;;;;;;;9.94;80.54;98774.13;5009385;28;20049;-72
2021/05/09 00:02:27;;;;;;;6.30;5.20;;;;;;;9.92;81.01;98778.63;5026957;28;20037;-69
2021/05/09 00:04:53;;;;;;;9.20;5.20;;;;;;;9.95;80.30;98779.38;5024850;28;20064;-73
2021/05/09 00:07:19;;;;;;;6.45;4.90;;;;;;;9.88;80.28;98787.59;4992862;28;20484;-71
2021/05/09 00:09:47;;;;;;;7.95;4.97;;;;;;;9.82;79.85;98780.72;5008879;28;20045;-70
2021/05/09 00:12:14;;;;;;;6.20;4.93;;;;;;;9.93;80.11;98789.16;4974271;28;20060;-72
2021/05/09 00:14:40;;;;;;;5.20;4.45;;;;;;;9.81;79.65;98796.66;5008489;28;20092;-69
2021/05/09 00:17:07;;;;;;;3.38;2.08;;;;;;;9.62;79.29;98783.13;5026993;28;20397;-68
2021/05/09 00:19:34;;;;;;;1.83;1.52;;;;;;;9.65;79.17;98792.75;4976984;28;20100;-69
2021/05/09 00:21:59;;;;;;;2.85;1.45;;;;;;;9.57;79.64;98806.22;5007601;28;20524;-68
2021/05/09 00:24:26;;;;;;;3.33;0.98;;;;;;;9.37;78.91;98766.28;5009907;28;20045;-70
2021/05/09 00:26:52;;;;;;;1.00;0.90;;;;;;;9.57;78.78;98807.09;4993455;28;20085;-73
2021/05/09 00:29:18;;;;;;;1.75;1.00;;;;;;;9.23;79.92;98792.31;4990799;28;20104;-71
2021/05/09 00:31:46;;;;;;;1.10;0.82;;;;;;;9.38;79.59;98810.38;5025858;28;20528;-68
2021/05/09 00:34:12;;;;;;;1.65;1.10;;;;;;;9.40;79.26;98809.41;5026673;28;20042;-69
2021/05/09 00:36:38;;;;;;;0.50;0.50;;;;;;;9.25;79.60;98806.34;5026196;28;20044;-69
2021/05/09 00:39:04;;;;;;;0.57;0.50;;;;;;;9.34;79.70;98814.84;5023783;28;20049;-69
2021/05/09 00:41:30;;;;;;;1.00;0.60;;;;;;;9.26;79.48;98794.88;5011288;28;20060;-69
2021/05/09 00:43:56;;;;;;;0.85;0.60;;;;;;;9.29;79.85;98821.19;5009345;28;20049;-70
2021/05/09 00:46:23;;;;;;;1.58;0.50;;;;;;;9.20;79.92;98816.19;5028600;28;20036;-69
2021/05/09 00:48:49;;;;;;;0.50;0.43;;;;;;;9.13;79.48;98822.56;5044344;28;20039;-70
2021/05/09 00:51:14;;;;;;;0.50;0.40;;;;;;;9.15;79.20;98818.97;5044588;28;20044;-70
2021/05/09 00:53:44;;;;;;;5.47;0.60;;;;;;;9.18;79.00;98821.53;5027148;28;20154;-68
2021/05/09 00:56:16;;;;;;;1.40;0.70;;;;;;;9.18;79.08;98824.16;5023889;28;20136;-70
2021/05/09 00:58:43;;;;;;;2.05;0.40;;;;;;;9.28;79.00;98835.34;5028932;28;20045;-70
2021/05/09 01:01:11;;;;;;;3.00;0.60;;;;;;;9.08;79.22;98830.66;4991293;28;20079;-67
2021/05/09 01:03:42;;;;;;;0.40;0.40;;;;;;;9.04;79.21;98818.44;4988857;28;20135;-70
2021/05/09 01:06:09;;;;;;;0.47;0.38;;;;;;;9.16;79.48;98831.28;4976540;28;20513;-72
2021/05/09 01:08:36;;;;;;;0.45;0.45;;;;;;;9.21;79.57;98845.25;4992812;28;20038;-68
2021/05/09 01:11:05;;;;;;;1.58;0.43;;;;;;;9.21;79.44;98847.88;5006871;28;20041;-70
2021/05/09 01:13:32;;;;;;;0.30;0.30;;;;;;;9.03;79.48;98848.41;4991648;28;20152;-67
2021/05/09 01:16:00;;;;;;;2.25;0.40;;;;;;;8.94;79.52;98843.38;4992206;28;20397;-70
2021/05/09 01:18:28;;;;;;;0.28;0.28;;;;;;;9.08;79.05;98865.03;5008930;28;20493;-72
2021/05/09 01:20:55;;;;;;;2.15;0.47;;;;;;;8.95;79.20;98860.13;4990934;28;20046;-67
2021/05/09 01:23:21;;;;;;;0.60;0.60;;;;;;;8.82;79.84;98856.94;4976489;28;20037;-69
2021/05/09 01:25:47;;;;;;;1.65;0.60;;;;;;;8.81;79.95;98865.78;5008728;28;20412;-67
2021/05/09 01:28:13;;;;;;;0.80;0.55;;;;;;;8.79;79.27;98870.25;5015325;28;20049;-70
2021/05/09 01:30:41;;;;;;;1.05;0.70;;;;;;;8.81;79.92;98891.34;5011272;28;20206;-68
2021/05/09 01:33:07;;;;;;;0.90;0.65;;;;;;;8.87;79.01;98880.63;5011674;28;20037;-68
2021/05/09 01:35:34;;;;;;;2.35;0.60;;;;;;;8.87;79.19;98888.56;5027220;28;20037;-70
2021/05/09 01:38:01;;;;;;;1.02;0.63;;;;;;;8.78;78.74;98886.13;5013700;28;20636;-69
2021/05/09 01:40:27;;;;;;;0.60;0.60;;;;;;;8.78;78.83;98899.34;5043768;28;20049;-67
2021/05/09 01:42:53;;;;;;;0.70;0.60;;;;;;;8.74;79.25;98905.63;5025951;28;20044;-68
2021/05/09 01:45:21;;;;;;;2.03;0.60;;;;;;;8.74;79.11;98902.97;5007836;28;20049;-70
2021/05/09 01:47:48;;;;;;;0.85;0.60;;;;;;;8.67;79.12;98904.91;5026011;28;20155;-69
2021/05/09 01:50:16;;;;;;;0.70;0.60;;;;;;;8.73;78.84;98903.91;5026068;28;20123;-69
2021/05/09 01:52:42;;;;;;;1.08;0.60;;;;;;;8.78;78.71;98902.88;5025411;28;20049;-71
2021/05/09 01:55:12;;;;;;;0.82;0.60;;;;;;;8.71;78.34;98893.38;5010274;28;20481;-68
2021/05/09 01:57:41;;;;;;;1.00;0.80;;;;;;;8.72;78.51;98912.75;5009138;28;20040;-68
2021/05/09 02:00:14;;;;;;;0.82;0.60;;;;;;;8.68;77.80;98900.50;4985882;28;20053;-68
2021/05/09 02:02:55;;;;;;;0.60;0.60;;;;;;;8.67;78.66;98917.28;5007913;28;20457;-68
2021/05/09 02:05:27;;;;;;;1.02;0.60;;;;;;;8.40;78.51;98899.50;5024222;28;20519;-67
2021/05/09 02:07:53;;;;;;;1.25;0.65;;;;;;;8.35;78.97;98896.94;5023994;28;20179;-68
2021/05/09 02:10:20;;;;;;;3.75;0.80;;;;;;;8.56;78.65;98924.63;5011689;28;20045;-70
2021/05/09 02:12:49;;;;;;;1.17;0.60;;;;;;;8.68;77.56;98930.47;5030914;28;20049;-68
2021/05/09 02:15:27;;;;;;;1.95;0.50;;;;;;;8.64;77.94;98922.66;4995176;28;20041;-68
2021/05/09 02:17:53;;;;;;;0.60;0.60;;;;;;;8.57;78.02;98908.72;5012161;28;20045;-68
2021/05/09 02:20:23;;;;;;;0.70;0.60;;;;;;;8.63;77.33;98913.00;4995430;28;20136;-67
2021/05/09 02:22:52;;;;;;;2.78;0.80;;;;;;;8.48;77.25;98905.44;5009905;28;20048;-71
2021/05/09 02:25:18;;;;;;;1.30;0.90;;;;;;;8.65;77.22;98932.28;5011732;28;20045;-73
2021/05/09 02:27:44;;;;;;;3.72;0.80;;;;;;;8.60;77.61;98945.66;5008295;28;20501;-68
2021/05/09 02:30:10;;;;;;;1.83;0.80;;;;;;;8.61;77.08;98957.06;5026551;28;20046;-73
2021/05/09 02:32:36;;;;;;;2.35;1.10;;;;;;;8.65;76.76;98942.88;4993099;28;20052;-67
2021/05/09 02:35:03;;;;;;;0.65;0.50;;;;;;;8.63;77.00;98956.13;5010178;28;20072;-70
2021/05/09 02:37:29;;;;;;;3.05;0.80;;;;;;;8.70;76.83;98960.34;5027429;28;20092;-68
2021/05/09 02:39:54;;;;;;;2.00;1.00;;;;;;;8.70;76.50;98978.84;5007555;28;20119;-68
2021/05/09 02:42:21;;;;;;;9.48;0.90;;;;;;;8.58;76.85;98984.44;4993358;28;20048;-67
2021/05/09 02:44:47;;;;;;;1.73;0.88;;;;;;;8.65;76.20;98993.06;4994701;28;20042;-67
2021/05/09 02:47:28;;;;;;;7.45;1.08;;;;;;;8.69;76.20;99003.53;4993692;28;20590;-68
2021/05/09 02:50:07;;;;;;;1.95;1.00;;;;;;;8.67;76.21;99005.34;4995247;28;20053;-69
2021/05/09 02:52:34;;;;;;;1.30;0.70;;;;;;;8.67;76.29;99007.97;4992874;28;20045;-70
2021/05/09 02:55:01;;;;;;;1.23;0.73;;;;;;;8.59;76.59;99002.00;5025051;28;20536;-69
2021/05/09 02:57:30;;;;;;;2.22;0.82;;;;;;;8.76;75.88;99005.13;4992826;28;20409;-68
2021/05/09 02:59:56;;;;;;;1.13;0.80;;;;;;;8.65;75.88;99009.81;5008904;28;20053;-68
2021/05/09 03:02:22;;;;;;;2.80;0.88;;;;;;;8.68;75.87;99011.50;5008793;28;20586;-68
2021/05/09 03:04:49;;;;;;;1.27;0.65;;;;;;;8.77;75.03;99011.25;5011225;28;20101;-67
2021/05/09 03:07:15;;;;;;;1.25;0.80;;;;;;;8.78;75.15;99021.81;5011242;28;20045;-68
2021/05/09 03:09:41;;;;;;;0.90;0.65;;;;;;;8.79;75.14;99023.53;5010859;28;20053;-68
2021/05/09 03:12:07;;;;;;;1.08;0.70;;;;;;;8.57;75.89;99027.63;5008846;28;20049;-69
2021/05/09 03:14:34;;;;;;;1.85;0.70;;;;;;;8.63;74.70;99026.59;5027670;28;20045;-68
2021/05/09 03:17:01;;;;;;;2.25;0.80;;;;;;;8.74;75.18;99040.41;4994448;28;20424;-68
2021/05/09 03:19:26;;;;;;;1.35;0.70;;;;;;;8.78;75.00;99042.94;5025270;28;20045;-73
2021/05/09 03:21:52;;;;;;;1.85;0.80;;;;;;;8.67;75.35;99039.69;4978402;28;20049;-68
2021/05/09 03:24:18;;;;;;;0.93;0.60;;;;;;;8.43;75.17;99050.84;5010762;28;20128;-68
2021/05/09 03:26:44;;;;;;;0.70;0.60;;;;;;;8.61;74.84;99052.19;4993364;28;20041;-68
2021/05/09 03:29:10;;;;;;;1.25;0.70;;;;;;;8.46;74.12;99036.69;4991913;28;20059;-69
2021/05/09 03:31:36;;;;;;;1.05;0.80;;;;;;;8.74;73.90;99054.50;5028133;28;20501;-68
2021/05/09 03:34:02;;;;;;;1.20;0.80;;;;;;;8.69;74.08;99059.03;4993852;28;20045;-67
2021/05/09 03:36:28;;;;;;;4.55;0.75;;;;;;;8.50;74.42;99059.47;4993781;28;20358;-71
2021/05/09 03:38:54;;;;;;;1.98;0.80;;;;;;;8.56;74.46;99078.72;5008613;28;20045;-68
2021/05/09 03:41:22;;;;;;;2.58;0.95;;;;;;;8.59;73.09;99069.88;5028048;28;20481;-70
2021/05/09 03:43:48;;;;;;;1.17;0.82;;;;;;;8.73;72.85;99065.09;5027658;28;20056;-69
2021/05/09 03:46:14;;;;;;;6.45;1.17;;;;;;;8.84;72.04;99089.50;5011205;28;20497;-69
2021/05/09 03:48:39;;;;;;;3.20;0.80;;;;;;;8.82;71.49;99084.25;5047699;28;20036;-67
2021/05/09 03:51:05;;;;;;;1.33;1.02;;;;;;;8.76;71.46;99084.41;5029989;28;20074;-70
2021/05/09 03:53:31;;;;;;;1.05;0.90;;;;;;;8.72;71.63;99082.75;5030069;28;20098;-67
2021/05/09 03:55:58;;;;;;;1.17;0.90;;;;;;;8.75;71.17;99087.94;5027580;28;20045;-68
2021/05/09 03:58:24;;;;;;;5.82;0.90;;;;;;;8.80;71.14;99083.44;5020876;28;20523;-67
2021/05/09 04:00:50;;;;;;;1.02;0.93;;;;;;;8.87;71.17;99076.22;5009712;28;20045;-71
2021/05/09 04:03:30;;;;;;;2.00;0.80;;;;;;;8.88;70.60;99086.78;5008616;28;20045;-73
2021/05/09 04:05:57;;;;;;;1.40;0.80;;;;;;;8.99;70.35;99102.38;5027726;28;20041;-67
2021/05/09 04:08:27;;;;;;;1.10;0.70;;;;;;;9.08;70.02;99087.16;5009318;28;20057;-67
2021/05/09 04:10:56;;;;;;;1.25;0.60;;;;;;;9.06;69.84;99110.09;4991109;28;20057;-68
2021/05/09 04:13:22;;;;;;;1.75;0.90;;;;;;;8.76;70.20;99084.41;5008493;28;20041;-68
2021/05/09 04:15:49;;;;;;;1.67;1.00;;;;;;;8.97;70.12;99104.16;5019735;28;20133;-68
2021/05/09 04:18:16;;;;;;;1.15;0.90;;;;;;;8.99;69.52;99107.66;5008073;28;20131;-72
2021/05/09 04:20:42;;;;;;;1.48;0.93;;;;;;;9.16;69.76;99111.63;4992742;28;20154;-67
2021/05/09 04:23:12;;;;;;;1.48;0.98;;;;;;;9.02;69.82;99116.38;5009255;28;20042;-68
2021/05/09 04:25:40;;;;;;;2.90;1.02;;;;;;;8.96;69.52;99091.84;4992970;28;20048;-66
2021/05/09 04:28:07;;;;;;;1.35;0.90;;;;;;;9.15;69.74;99127.53;4994237;28;20041;-66
2021/05/09 04:30:34;;;;;;;1.17;1.08;;;;;;;9.29;69.03;99134.22;5028318;28;20584;-68
2021/05/09 04:33:01;;;;;;;2.25;1.10;;;;;;;9.21;69.35;99137.94;5046629;28;20072;-67
2021/05/09 04:35:27;;;;;;;1.70;1.00;;;;;;;9.26;69.23;99133.44;5027000;28;20451;-67
2021/05/09 04:37:54;;;;;;;2.97;0.70;;;;;;;9.08;69.74;99140.03;5012395;28;20469;-67
2021/05/09 04:40:21;;;;;;;1.00;0.90;;;;;;;9.06;68.98;99136.53;4996319;28;20171;-71
2021/05/09 04:42:47;;;;;;;1.50;0.70;;;;;;;8.89;70.07;99129.91;5011865;28;20120;-71
2021/05/09 04:45:13;;;;;;;1.65;0.80;;;;;;;8.97;70.31;99155.28;5018068;28;20453;-67
2021/05/09 04:47:41;;;;;;;1.45;0.70;;;;;;;8.83;71.40;99148.56;5012263;28;20634;-67
2021/05/09 04:50:08;;;;;;;3.13;0.70;;;;;;;8.73;71.32;99162.88;5028668;28;20061;-66
2021/05/09 04:52:34;;;;;;;3.05;0.80;;;;;;;8.70;70.81;99171.75;5026700;28;20044;-66
2021/05/09 04:55:00;;;;;;;0.55;0.50;;;;;;;8.81;70.35;99172.41;5046540;28;20463;-68
2021/05/09 04:57:27;;;;;;;0.90;0.63;;;;;;;9.07;69.87;99187.66;5028074;28;20041;-71
2021/05/09 04:59:53;;;;;;;5.53;0.80;;;;;;;9.22;69.01;99188.16;4999096;28;20044;-71
2021/05/09 05:02:19;;;;;;;2.22;1.05;;;;;;;8.93;69.24;99185.34;5027400;28;20167;-67
2021/05/09 05:04:45;;;;;;;8.13;0.90;;;;;;;8.91;68.69;99186.28;5028753;28;20045;-68
2021/05/09 05:07:11;;;;;;;2.05;0.65;;;;;;;8.77;68.81;99196.28;5028637;28;20056;-67
2021/05/09 05:09:41;;;;;;;4.32;0.73;;;;;;;8.91;68.33;99197.72;5044823;28;20041;-72
2021/05/09 05:12:08;;;;;;;0.93;0.80;;;;;;;8.68;69.34;99204.41;5028770;28;20079;-66
2021/05/09 05:14:35;;;;;;;1.17;0.70;;;;;;;8.91;68.54;99207.44;4990819;28;20052;-67
2021/05/09 05:17:02;;;;;;;1.85;0.80;;;;;;;8.98;68.89;99196.69;5008216;28;20077;-68
2021/05/09 05:19:28;;;;;;;1.20;0.80;;;;;;;8.51;68.84;99159.00;5007247;28;20096;-68
2021/05/09 05:21:54;;;;;;;1.33;0.60;;;;;;;8.58;70.11;99211.66;5024984;28;20053;-65
2021/05/09 05:24:20;;;;;;;2.85;0.85;;;;;;;8.62;70.48;99239.78;4992275;28;20103;-67
2021/05/09 05:26:46;;;;;;;3.30;1.02;;;;;;;8.61;70.41;99237.16;5023524;28;20045;-68
2021/05/09 05:29:12;;;;;;;0.85;0.60;;;;;;;8.38;69.81;99232.34;5028341;28;20049;-69
2021/05/09 05:31:37;;;;;;;4.05;0.70;;;;;;;8.30;70.18;99249.22;4975890;28;20488;-69
2021/05/09 05:34:03;;;;;;;2.83;1.05;;;;;;;8.17;70.01;99252.97;4992134;28;20057;-70
2021/05/09 05:36:33;;;;;;;1.15;0.85;;;;;;;8.10;70.47;99275.97;4990229;28;20140;-67
2021/05/09 05:38:59;;;;;;;1.45;0.70;;;;;;;8.18;69.92;99273.19;5026232;28;20041;-67
2021/05/09 05:41:25;;;;;;;2.38;0.85;;;;;;;8.19;69.89;99274.97;5008439;28;20037;-69
2021/05/09 05:43:51;;;;;;;1.33;0.70;;;;;;;8.06;69.78;99274.28;5004812;28;20181;-72
2021/05/09 05:46:17;;;;;;;1.50;0.77;;;;;;;8.09;69.59;99276.88;5026069;28;20072;-65
2021/05/09 05:48:44;;;;;;;1.85;0.90;;;;;;;8.13;69.54;99304.09;5027975;28;20398;-64
2021/05/09 05:51:10;;;;;;;0.90;0.70;;;;;;;8.15;69.36;99305.81;4995597;28;20041;-66
2021/05/09 05:53:36;;;;;;;4.75;0.88;;;;;;;8.15;68.31;99295.25;5043936;28;20047;-65
2021/05/09 05:56:02;;;;;;;0.80;0.80;;;;;;;8.20;68.54;99300.47;5045538;28;20140;-66
2021/05/09 05:58:29;;;;;;;1.63;0.60;;;;;;;8.05;67.83;99296.31;5021488;28;20152;-64
2021/05/09 06:00:55;;;;;;;1.13;0.70;;;;;;;7.97;68.53;99321.97;5021547;28;20040;-72
2021/05/09 06:03:23;;;;;;;1.30;0.50;;;;;;;7.92;67.77;99307.13;5026710;28;20881;-71
2021/05/09 06:05:49;;;;;;;1.92;1.17;;;;;;;7.93;68.02;99316.78;5012072;28;20041;-69
2021/05/09 06:08:18;;;;;;;0.88;0.60;;;;;;;8.18;67.36;99318.09;5045756;28;20153;-64
2021/05/09 06:10:46;;;;;;;2.30;0.70;;;;;;;8.28;66.70;99317.91;5024744;28;20083;-67
2021/05/09 06:13:12;;;;;;;0.85;0.80;;;;;;;8.10;67.06;99307.66;5033620;28;20041;-63
2021/05/09 06:15:38;;;;;;;2.53;0.80;;;;;;;8.21;67.65;99326.88;5025750;28;20092;-65
2021/05/09 06:18:05;;;;;;;1.50;1.33;;;;;;;7.92;68.36;99315.03;5024508;28;20148;-72
2021/05/09 06:20:32;;;;;;;5.30;1.70;;;;;;;7.96;69.57;99332.56;4991832;28;20144;-63
2021/05/09 06:23:03;;;;;;;2.85;0.77;;;;;;;7.74;69.75;99325.88;4992144;28;20049;-64
2021/05/09 06:25:29;;;;;;;4.18;0.90;;;;;;;7.70;70.43;99335.63;5025066;28;20175;-73
2021/05/09 06:27:55;;;;;;;2.60;0.80;;;;;;;7.66;69.68;99314.56;5006343;28;20053;-65
2021/05/09 06:30:22;;;;;;;3.55;0.70;;;;;;;7.78;69.41;99335.50;4988836;28;20098;-66
2021/05/09 06:32:48;;;;;;;6.30;1.00;;;;;;;7.93;68.74;99344.06;5025666;28;20042;-66
2021/05/09 06:35:14;;;;;;;5.90;1.15;;;;;;;7.81;69.12;99349.53;5022159;28;20041;-66
2021/05/09 06:37:41;;;;;;;4.45;0.73;;;;;;;7.92;68.00;99350.19;5024222;28;20060;-65
2021/05/09 06:40:08;;;;;;;1.40;0.80;;;;;;;7.52;68.70;99327.97;5009362;28;20040;-68
2021/05/09 06:42:34;;;;;;;1.83;0.75;;;;;;;7.79;68.19;99363.66;5004986;28;20167;-68
2021/05/09 06:45:08;;;;;;;0.60;0.60;;;;;;;7.82;68.72;99361.81;5012802;28;20045;-69
2021/05/09 06:47:34;;;;;;;1.67;0.85;;;;;;;7.85;68.96;99369.69;5010669;28;20049;-68
2021/05/09 06:50:00;;;;;;;4.45;0.93;;;;;;;7.92;67.97;99362.56;4994393;28;20196;-68
2021/05/09 06:52:28;;;;;;;1.23;0.77;;;;;;;7.77;68.30;99371.59;5025347;28;20439;-67
2021/05/09 06:54:54;;;;;;;2.65;0.82;;;;;;;7.73;68.98;99388.34;5045688;28;20044;-66
2021/05/09 06:57:20;;;;;;;1.60;0.77;;;;;;;7.85;68.02;99382.00;4998373;28;20582;-68
2021/05/09 06:59:47;;;;;;;4.07;0.50;;;;;;;7.89;67.62;99379.31;4992381;28;20091;-68
2021/05/09 07:02:14;;;;;;;5.40;1.00;;;;;;;7.84;67.73;99404.88;5010854;28;20036;-66
2021/05/09 07:04:40;;;;;;;2.30;0.90;;;;;;;7.85;67.91;99392.56;4994045;28;20053;-67
2021/05/09 07:07:06;;;;;;;2.55;0.77;;;;;;;7.69;68.41;99410.41;5018278;28;20052;-69
2021/05/09 07:09:32;;;;;;;2.83;0.90;;;;;;;7.59;68.60;99378.88;4991981;28;20048;-66
2021/05/09 07:11:58;;;;;;;3.88;1.05;;;;;;;7.62;68.28;99410.50;4994575;28;20128;-66
2021/05/09 07:14:24;;;;;;;7.22;1.00;;;;;;;7.86;68.07;99432.13;5010449;28;20048;-67
2021/05/09 07:16:50;;;;;;;4.30;0.80;;;;;;;7.78;68.08;99433.13;4994453;28;20057;-74
2021/05/09 07:19:18;;;;;;;1.10;0.70;;;;;;;7.95;67.12;99432.00;5026920;28;20045;-70
2021/05/09 07:21:47;;;;;;;0.77;0.70;;;;;;;7.82;67.46;99427.81;4997381;28;20045;-71
2021/05/09 07:24:13;;;;;;;2.75;0.80;;;;;;;7.72;67.66;99435.88;5030141;28;20048;-68
2021/05/09 07:26:40;;;;;;;1.60;1.15;;;;;;;7.50;68.16;99422.09;4996042;28;20050;-68
2021/05/09 07:29:06;;;;;;;1.13;0.80;;;;;;;7.47;68.40;99439.72;5006301;28;20049;-75
2021/05/09 07:31:32;;;;;;;1.30;0.85;;;;;;;7.51;68.27;99450.22;5044399;28;20076;-76
2021/05/09 07:33:59;;;;;;;1.33;0.63;;;;;;;7.45;68.63;99446.78;5029961;28;20468;-76
2021/05/09 07:36:27;;;;;;;1.80;0.90;;;;;;;7.37;68.68;99440.75;5013054;28;20037;-74
2021/05/09 07:38:53;;;;;;;2.00;0.70;;;;;;;7.44;68.50;99427.44;5014099;28;20052;-74
2021/05/09 07:41:18;;;;;;;4.75;0.75;;;;;;;7.69;68.15;99473.72;5030849;28;20049;-76
2021/05/09 07:43:46;;;;;;;1.48;0.88;;;;;;;7.46;68.70;99474.91;5008328;28;20103;-75
2021/05/09 07:46:18;;;;;;;2.83;0.90;;;;;;;7.69;68.77;99486.94;5005524;28;20033;-75
2021/05/09 07:48:44;;;;;;;1.15;0.60;;;;;;;7.56;68.21;99487.09;5010513;28;20124;-73
2021/05/09 07:51:10;;;;;;;1.65;0.98;;;;;;;7.61;68.32;99485.28;4992427;28;20505;-74
2021/05/09 07:53:36;;;;;;;5.75;1.10;;;;;;;7.64;68.35;99486.09;5010877;28;20049;-76
2021/05/09 07:56:05;;;;;;;1.88;0.68;;;;;;;7.59;67.59;99461.53;5010491;28;20099;-73
2021/05/09 07:58:32;;;;;;;2.60;0.70;;;;;;;7.81;68.21;99489.41;5029273;28;20040;-79
2021/05/09 08:01:02;;;;;;;3.00;1.20;;;;;;;7.59;68.40;99497.59;4987749;28;20041;-75
2021/05/09 08:03:28;;;;;;;3.03;1.00;;;;;;;7.52;68.69;99491.53;5013526;28;20098;-75
2021/05/09 08:05:57;;;;;;;2.47;0.80;;;;;;;7.53;69.02;99493.28;5012700;28;20140;-76
2021/05/09 08:08:26;;;;;;;1.52;0.90;;;;;;;7.63;69.12;99484.34;5028366;28;20053;-74
2021/05/09 08:10:53;;;;;;;1.48;0.70;;;;;;;7.79;68.89;99496.44;5048574;28;20044;-76
2021/05/09 08:13:21;;;;;;;2.22;0.90;;;;;;;7.54;69.45;99502.06;5029720;28;20041;-75
2021/05/09 08:15:47;;;;;;;3.85;1.10;;;;;;;7.84;69.85;99509.59;5010913;28;20522;-75
2021/05/09 08:18:24;;;;;;;2.83;0.75;;;;;;;7.56;70.74;99501.16;5029461;28;20045;-75
2021/05/09 08:20:52;;;;;;;1.48;0.88;;;;;;;7.53;71.53;99524.94;5030074;28;20048;-76
2021/05/09 08:23:20;;;;;;;2.35;1.50;;;;;;;7.53;72.24;99535.50;5046968;28;20127;-75
2021/05/09 08:25:48;;;;;;;2.33;0.95;;;;;;;7.58;72.55;99532.78;5012772;28;20044;-74
2021/05/09 08:28:15;;;;;;;1.98;1.20;;;;;;;7.12;73.05;99468.28;5011405;28;20041;-75
2021/05/09 08:30:42;;;;;;;2.33;1.20;;;;;;;7.55;73.51;99538.97;5007448;28;20041;-75
2021/05/09 08:33:08;;;;;;;2.22;1.13;;;;;;;7.38;73.61;99540.94;5026173;28;20046;-72
2021/05/09 08:35:36;;;;;;;3.10;0.98;;;;;;;7.32;73.58;99534.88;4976958;28;20151;-75
2021/05/09 08:38:06;;;;;;;1.92;1.20;;;;;;;7.22;74.37;99556.94;4976890;28;20049;-77
2021/05/09 08:40:32;;;;;;;1.55;1.13;;;;;;;7.24;74.99;99561.28;5008114;28;20045;-74
2021/05/09 08:43:01;;;;;;;3.40;1.70;;;;;;;7.38;74.90;99572.59;5009799;28;20042;-74
2021/05/09 08:45:28;;;;;;;1.52;1.02;;;;;;;7.51;74.67;99579.47;5000946;28;20115;-74
2021/05/09 08:47:55;;;;;;;5.50;1.40;;;;;;;7.57;74.57;99583.81;5007795;28;20049;-73
2021/05/09 08:50:25;;;;;;;5.47;1.50;;;;;;;7.62;74.38;99588.16;4993403;28;20071;-74
2021/05/09 08:52:51;;;;;;;3.78;1.40;;;;;;;7.46;75.24;99593.59;4992893;28;20045;-73
2021/05/09 08:55:25;;;;;;;3.38;1.50;;;;;;;7.43;75.02;99591.88;5008381;28;20050;-75
2021/05/09 08:57:53;;;;;;;4.32;1.45;;;;;;;7.46;75.90;99604.16;5002929;28;20045;-76
2021/05/09 09:00:19;;;;;;;1.95;1.42;;;;;;;7.40;75.21;99615.63;5042264;28;20143;-77
2021/05/09 09:02:45;;;;;;;3.25;1.55;;;;;;;7.43;74.74;99609.44;5014685;28;20357;-76
2021/05/09 09:05:13;;;;;;;2.03;1.50;;;;;;;7.68;73.78;99606.53;5040492;28;20052;-78
2021/05/09 09:07:51;;;;;;;3.08;1.58;;;;;;;7.50;74.71;99611.16;5014305;28;20425;-80
2021/05/09 09:10:29;;;;;;;4.78;1.70;;;;;;;7.59;74.08;99632.16;5028709;28;20102;-83
2021/05/09 09:12:59;;;;;;;2.58;1.70;;;;;;;7.90;73.47;99623.91;5046664;28;20547;-75
2021/05/09 09:15:45;;;;;;;3.38;1.50;;;;;;;7.70;72.98;99627.63;5011496;28;20041;-76
2021/05/09 09:18:43;;;;;;;4.93;1.80;;;;;;;7.68;73.40;99632.06;5012746;28;20055;-74
2021/05/09 09:21:25;;;;;;;3.67;1.85;;;;;;;7.84;73.18;99634.50;4964313;28;20055;-76
2021/05/09 09:24:06;;;;;;;4.68;2.10;;;;;;;7.86;73.49;99627.47;4965259;28;20186;-81
2021/05/09 09:26:35;;;;;;;2.55;1.80;;;;;;;8.06;72.84;99643.06;4947205;28;20053;-77
2021/05/09 09:29:28;;;;;;;5.68;2.30;;;;;;;7.95;72.76;99648.47;4950489;28;20043;-80
2021/05/09 09:32:09;;;;;;;3.50;2.10;;;;;;;8.23;72.76;99654.34;4931671;28;20493;-80
2021/05/09 09:34:43;;;;;;;2.97;2.00;;;;;;;8.07;72.04;99616.63;4948737;28;20141;-70
2021/05/09 09:37:10;;;;;;;3.78;1.80;;;;;;;8.34;71.30;99629.53;4946152;28;20047;-72
2021/05/09 09:40:03;;;;;;;6.90;3.33;;;;;;;8.46;71.46;99639.03;4961803;28;20050;-68
2021/05/09 09:42:38;;;;;;;4.18;2.38;;;;;;;8.73;69.64;99651.88;4961402;28;20189;-72
2021/05/09 09:45:15;;;;;;;2.63;1.88;;;;;;;8.85;70.31;99654.34;4950102;28;20061;-70
2021/05/09 09:47:56;;;;;;;4.18;2.35;;;;;;;8.72;70.10;99643.09;4932839;28;20066;-73
2021/05/09 09:50:42;;;;;;;2.88;2.30;;;;;;;8.53;71.22;99660.09;4945726;28;20648;-73
2021/05/09 09:53:29;;;;;;;4.60;2.13;;;;;;;8.27;71.37;99672.75;4983557;28;20093;-73
2021/05/09 09:56:03;;;;;;;3.78;2.03;;;;;;;8.38;70.89;99675.25;4968203;28;20046;-69
2021/05/09 09:58:40;;;;;;;9.52;5.95;;;;;;;8.52;71.28;99687.41;4998487;28;20073;-75
2021/05/09 10:01:07;;;;;;;3.75;2.25;;;;;;;8.51;71.08;99693.56;5046063;28;20128;-75
2021/05/09 10:03:33;;;;;;;6.40;3.20;;;;;;;8.62;71.30;99691.66;5024383;28;20044;-75
2021/05/09 10:05:59;;;;;;;5.47;2.60;;;;;;;8.58;70.67;99697.00;5031061;28;20431;-74
2021/05/09 10:08:29;;;;;;;7.60;2.67;;;;;;;9.00;69.88;99697.31;5027429;28;20126;-74
2021/05/09 10:10:55;;;;;;;6.63;2.30;;;;;;;9.10;69.69;99704.19;5027949;28;20567;-75
2021/05/09 10:13:22;;;;;;;5.90;2.63;;;;;;;9.21;68.52;99701.38;5046234;28;20570;-78
2021/05/09 10:15:53;;;;;;;7.97;2.80;;;;;;;9.04;68.92;99692.81;5044988;28;20145;-79
2021/05/09 10:18:20;;;;;;;6.75;4.07;;;;;;;9.09;68.95;99706.84;4995927;28;20045;-80
2021/05/09 10:20:47;;;;;;;5.55;2.30;;;;;;;9.02;68.88;99715.78;4995622;28;20552;-80
2021/05/09 10:23:14;;;;;;;6.05;2.63;;;;;;;9.03;68.66;99699.03;4994900;28;20048;-76
2021/05/09 10:26:00;;;;;;;3.67;2.22;;;;;;;9.08;68.52;99710.41;5008236;28;20116;-79
2021/05/09 10:28:36;;;;;;;8.32;2.47;;;;;;;8.77;68.14;99703.78;4974626;28;20056;-76
2021/05/09 10:31:03;;;;;;;4.47;2.53;;;;;;;8.75;68.40;99710.91;5028882;28;20061;-70
2021/05/09 10:33:40;;;;;;;4.18;2.50;;;;;;;8.62;67.01;99719.84;4995491;28;20512;-69
2021/05/09 10:36:31;;;;;;;5.53;2.85;;;;;;;8.69;67.62;99730.34;5011875;28;20052;-82
2021/05/09 10:39:10;;;;;;;4.72;2.30;;;;;;;8.74;67.78;99725.88;4996422;28;20041;-74
2021/05/09 10:41:54;;;;;;;3.30;2.45;;;;;;;8.86;66.96;99733.63;4980753;28;20127;-74
2021/05/09 10:44:48;;;;;;;6.70;2.40;;;;;;;8.90;67.00;99737.97;4997291;28;20140;-76
2021/05/09 10:47:31;;;;;;;6.03;3.63;;;;;;;8.92;65.92;99740.59;4996209;28;20056;-75
2021/05/09 10:50:12;;;;;;;;;;;;;;;8.95;65.01;99751.16;5011573;28;20041;-75
2021/05/09 10:52:43;;;;;;;4.35;2.08;;;;;;;9.08;63.93;99750.06;5012746;28;19920;-75
2021/05/09 10:55:35;;;;;;;3.70;1.90;;;;;;;9.13;64.75;99762.34;4994811;28;20477;-76
2021/05/09 10:58:03;;;;;;;9.43;2.10;;;;;;;9.20;64.30;99753.44;4986406;28;20037;-80
2021/05/09 11:00:29;;;;;;;4.22;2.40;;;;;;;9.20;64.58;99771.06;4995163;28;20069;-78
2021/05/09 11:02:55;;;;;;;4.13;2.33;;;;;;;9.24;64.23;99744.53;5014521;28;20156;-78
2021/05/09 11:05:59;;;;;;;5.38;2.72;;;;;;;9.42;63.92;99769.84;5042125;28;20052;-78
2021/05/09 11:08:47;;;;;;;3.03;2.20;;;;;;;9.09;62.40;99760.63;5030875;28;20190;-77
2021/05/09 11:11:13;;;;;;;4.45;2.00;;;;;;;8.96;63.62;99758.19;5011326;28;20441;-78
2021/05/09 11:14:01;;;;;;;3.85;2.33;;;;;;;8.80;63.15;99730.19;5030555;28;20037;-75
2021/05/09 11:16:43;;;;;;;9.45;2.30;;;;;;;9.03;63.42;99771.28;5031357;28;20057;-79
2021/05/09 11:19:17;;;;;;;3.20;2.20;;;;;;;9.07;63.21;99761.56;5031111;28;20052;-79
2021/05/09 11:21:49;;;;;;;7.85;2.25;;;;;;;9.26;62.54;99771.84;5013099;28;20041;-81
2021/05/09 11:24:23;;;;;;;4.53;2.50;;;;;;;9.18;62.78;99778.16;5011853;28;20489;-81
2021/05/09 11:27:09;;;;;;;6.15;2.00;;;;;;;9.48;62.57;99786.50;5013471;28;20459;-80
2021/05/09 11:29:39;;;;;;;12.95;2.35;;;;;;;9.45;61.61;99791.84;4978669;28;20069;-80
2021/05/09 11:32:05;;;;;;;3.88;2.20;;;;;;;9.49;61.88;99796.19;4996520;28;20045;-79
2021/05/09 11:34:31;;;;;;;3.15;1.98;;;;;;;9.47;61.78;99797.13;4995601;28;20044;-77
2021/05/09 11:36:58;;;;;;;4.07;2.55;;;;;;;9.13;61.89;99778.22;5010656;28;20049;-80
2021/05/09 11:39:29;;;;;;;3.70;2.20;;;;;;;9.10;61.76;99767.66;5012499;28;20046;-79
2021/05/09 11:42:01;;;;;;;3.63;2.30;;;;;;;9.42;60.99;99814.84;4994749;28;20041;-78
2021/05/09 11:44:48;;;;;;;6.57;3.72;;;;;;;9.26;60.51;99785.06;5010785;28;20128;-79
2021/05/09 11:47:20;;;;;;;3.63;1.98;;;;;;;9.32;60.07;99818.50;5012208;28;20048;-80
2021/05/09 11:49:50;;;;;;;5.13;2.88;;;;;;;9.34;60.30;99827.31;4994168;28;20041;-79